Time;durP1;ratioP1;P1;durP2;ratioP2;P2;SDS_P1;SDS_P2;PMS_P1;PMS_P2;Temp;Humidity;BMP_temperature;BMP_pressure;BME280_temperature;BME280_humidity;BME280_pressure;Samples;Min_cycle;Max_cycle;Signal;HPM_P1;HPM_P2
2023/07/18 00:00:17;;;;;;;0.40;0.40;;;;;;;17.37;55.85;97449.53;29395;227;63011;-56
2023/07/18 00:00:51;;;;;;;0.32;0.32;;;;;;;17.37;55.80;97449.53;29394;211;64013;-57
2023/07/18 00:01:24;;;;;;;0.40;0.40;;;;;;;17.37;56.43;97459.72;29395;307;63004;-56
2023/07/18 00:01:58;;;;;;;0.40;0.40;;;;;;;17.37;56.89;97460.50;29395;219;63008;-57
2023/07/18 00:02:29;;;;;;;0.40;0.40;;;;;;;17.38;56.89;97461.31;29395;202;63005;-56
2023/07/18 00:03:00;;;;;;;0.40;0.40;;;;;;;17.37;56.64;97460.50;29395;286;63009;-57
2023/07/18 00:03:32;;;;;;;0.40;0.40;;;;;;;17.37;57.01;97457.78;29394;215;64005;-58
2023/07/18 00:04:03;;;;;;;0.40;0.40;;;;;;;17.37;56.57;97456.97;29395;224;63005;-57
2023/07/18 00:04:35;;;;;;;0.30;0.30;;;;;;;17.37;56.63;97460.50;29395;219;63017;-57
2023/07/18 00:05:12;;;;;;;0.30;0.30;;;;;;;17.35;55.71;97451.81;29394;252;64013;-57
2023/07/18 00:05:43;;;;;;;0.40;0.40;;;;;;;17.34;56.06;97461.16;29395;197;63005;-56
2023/07/18 00:06:17;;;;;;;0.30;0.30;;;;;;;17.34;56.09;97461.16;29395;214;63009;-56
2023/07/18 00:06:49;;;;;;;0.30;0.30;;;;;;;17.34;56.70;97461.16;29395;227;63004;-57
2023/07/18 00:07:21;;;;;;;0.40;0.40;;;;;;;17.35;56.40;97462.78;29394;203;64013;-56
2023/07/18 00:07:53;;;;;;;0.37;0.37;;;;;;;17.35;56.43;97462.78;29395;254;63007;-57
2023/07/18 00:08:24;;;;;;;0.40;0.40;;;;;;;17.35;56.82;97454.53;29395;215;63021;-57
2023/07/18 00:08:55;;;;;;;0.40;0.40;;;;;;;17.37;56.68;97465.19;29395;206;63004;-57
2023/07/18 00:09:27;;;;;;;0.30;0.30;;;;;;;17.35;55.94;97454.53;29395;245;63019;-57
2023/07/18 00:09:58;;;;;;;0.40;0.40;;;;;;;17.35;55.80;97451.81;29395;215;63005;-57
2023/07/18 00:10:29;;;;;;;0.30;0.30;;;;;;;17.35;55.67;97453.75;29394;227;64014;-57
2023/07/18 00:11:01;;;;;;;0.40;0.40;;;;;;;17.35;55.54;97456.47;29395;240;63005;-57
2023/07/18 00:11:32;;;;;;;0.30;0.30;;;;;;;17.32;55.70;97455.22;29395;228;63009;-57
2023/07/18 00:12:05;;;;;;;0.40;0.40;;;;;;;17.32;56.05;97449.72;29394;265;64009;-57
2023/07/18 00:12:39;;;;;;;0.40;0.40;;;;;;;17.32;56.57;97457.97;29395;196;63009;-56
2023/07/18 00:13:12;;;;;;;0.40;0.40;;;;;;;17.33;56.41;97458.75;29395;239;63005;-56
2023/07/18 00:13:43;;;;;;;0.40;0.40;;;;;;;17.31;56.11;97445.38;29395;219;63009;-57
2023/07/18 00:14:17;;;;;;;0.32;0.32;;;;;;;17.31;56.00;97450.88;29395;214;63004;-57
2023/07/18 00:14:49;;;;;;;0.40;0.40;;;;;;;17.30;56.10;97457.47;29395;242;63009;-60
2023/07/18 00:15:21;;;;;;;0.37;0.37;;;;;;;17.29;56.14;97450.38;29394;237;64000;-57
2023/07/18 00:15:53;;;;;;;0.40;0.40;;;;;;;17.28;56.57;97457.00;29394;251;64013;-57
2023/07/18 00:16:24;;;;;;;0.40;0.40;;;;;;;17.28;57.09;97454.25;29395;224;63004;-57
2023/07/18 00:16:56;;;;;;;0.40;0.40;;;;;;;17.29;56.42;97455.06;29395;196;63008;-56
2023/07/18 00:17:27;;;;;;;0.40;0.40;;;;;;;17.29;56.78;97457.78;29395;209;63005;-57
2023/07/18 00:18:01;;;;;;;0.40;0.40;;;;;;;17.28;56.28;97462.47;29395;221;63009;-56
2023/07/18 00:18:33;;;;;;;0.40;0.40;;;;;;;17.28;55.93;97456.19;29394;222;64009;-60
2023/07/18 00:19:04;;;;;;;0.40;0.40;;;;;;;17.26;55.91;97453.75;29395;245;63009;-57
2023/07/18 00:19:37;;;;;;;0.40;0.40;;;;;;;17.26;56.22;97455.69;29395;239;63005;-56
2023/07/18 00:20:17;;;;;;;0.40;0.40;;;;;;;17.24;55.70;97455.22;29395;197;63009;-56
2023/07/18 00:20:48;;;;;;;0.40;0.40;;;;;;;17.18;55.48;97451.00;29395;233;63005;-57
2023/07/18 00:21:19;;;;;;;0.40;0.40;;;;;;;17.16;55.96;97453.25;29394;212;64013;-57
2023/07/18 00:21:51;;;;;;;0.40;0.40;;;;;;;17.15;56.40;97457.94;29395;246;63014;-58
2023/07/18 00:22:22;;;;;;;0.40;0.40;;;;;;;17.14;56.94;97453.59;29395;287;63017;-59
2023/07/18 00:22:53;;;;;;;0.40;0.40;;;;;;;17.14;57.00;97453.59;29395;232;63004;-57
2023/07/18 00:23:24;;;;;;;0.40;0.40;;;;;;;17.14;56.80;97456.31;29395;202;63009;-57
2023/07/18 00:23:56;;;;;;;0.40;0.40;;;;;;;17.14;56.56;97450.03;29394;214;64009;-57
2023/07/18 00:24:28;;;;;;;0.40;0.40;;;;;;;17.14;56.77;97450.03;29395;242;63025;-56
2023/07/18 00:25:00;;;;;;;0.30;0.30;;;;;;;17.13;56.87;97454.72;29395;212;63005;-56
2023/07/18 00:25:31;;;;;;;0.40;0.40;;;;;;;17.08;56.25;97454.87;29395;209;63009;-57
2023/07/18 00:26:02;;;;;;;0.40;0.40;;;;;;;17.07;56.44;97456.00;29395;291;63005;-56
2023/07/18 00:26:34;;;;;;;0.40;0.40;;;;;;;17.05;57.53;97464.53;29395;222;63017;-56
2023/07/18 00:27:06;;;;;;;0.40;0.40;;;;;;;17.02;56.90;97459.69;29395;203;63005;-56
2023/07/18 00:27:40;;;;;;;0.40;0.40;;;;;;;17.02;57.10;97456.13;29395;238;63009;-56
2023/07/18 00:28:11;;;;;;;0.40;0.40;;;;;;;17.03;57.55;97460.50;29394;220;64009;-56
2023/07/18 00:28:43;;;;;;;0.40;0.40;;;;;;;17.02;57.11;97464.38;29395;209;63010;-57
2023/07/18 00:29:14;;;;;;;0.40;0.40;;;;;;;17.02;57.57;97459.69;29395;208;63004;-57
2023/07/18 00:29:45;;;;;;;0.40;0.40;;;;;;;17.02;57.75;97458.88;29394;230;64007;-56
2023/07/18 00:30:19;;;;;;;0.40;0.40;;;;;;;17.03;57.57;97465.97;29395;228;63004;-57
2023/07/18 00:30:50;;;;;;;0.40;0.40;;;;;;;17.02;57.58;97458.88;29395;288;63009;-57
2023/07/18 00:31:22;;;;;;;0.40;0.40;;;;;;;17.02;57.05;97458.88;29395;247;63004;-56
2023/07/18 00:31:53;;;;;;;0.40;0.40;;;;;;;17.00;57.22;97453.72;29395;232;63008;-56
2023/07/18 00:32:24;;;;;;;0.30;0.30;;;;;;;17.02;57.46;97458.88;29394;199;64008;-56
2023/07/18 00:32:56;;;;;;;0.40;0.40;;;;;;;17.01;57.34;97457.25;29394;225;64014;-56
2023/07/18 00:33:28;;;;;;;0.40;0.40;;;;;;;16.99;57.32;97452.09;29395;197;63005;-57
2023/07/18 00:34:00;;;;;;;0.40;0.40;;;;;;;16.99;57.10;97465.81;29395;204;63009;-57
2023/07/18 00:34:31;;;;;;;0.43;0.43;;;;;;;16.99;57.52;97460.31;29395;248;63011;-57
2023/07/18 00:35:04;;;;;;;0.40;0.40;;;;;;;16.99;57.46;97463.06;29395;204;63009;-57
2023/07/18 00:35:35;;;;;;;0.40;0.40;;;;;;;17.01;58.08;97462.75;29395;222;63014;-56
2023/07/18 00:36:07;;;;;;;0.40;0.40;;;;;;;17.01;57.78;97462.75;29395;251;63009;-56
2023/07/18 00:36:38;;;;;;;0.40;0.40;;;;;;;17.01;58.04;97468.22;29395;211;63005;-56
2023/07/18 00:37:11;;;;;;;0.40;0.40;;;;;;;17.01;57.73;97455.34;29395;219;63009;-57
2023/07/18 00:37:44;;;;;;;0.40;0.40;;;;;;;17.03;57.70;97460.50;29394;321;64009;-60
2023/07/18 00:38:15;;;;;;;0.40;0.40;;;;;;;17.04;57.59;97462.13;29395;230;63009;-57
2023/07/18 00:38:47;;;;;;;0.40;0.40;;;;;;;17.03;57.56;97464.03;29394;223;64009;-57
2023/07/18 00:39:18;;;;;;;0.37;0.37;;;;;;;17.03;57.45;97460.50;29395;298;63008;-57
2023/07/18 00:39:49;;;;;;;0.40;0.40;;;;;;;17.01;57.48;97469.03;29395;230;63004;-56
2023/07/18 00:40:21;;;;;;;0.40;0.40;;;;;;;17.01;57.49;97462.75;29395;220;63009;-57
2023/07/18 00:40:55;;;;;;;0.40;0.40;;;;;;;17.01;57.80;97468.22;29395;259;63006;-58
2023/07/18 00:41:26;;;;;;;0.40;0.40;;;;;;;17.02;58.13;97461.63;29395;219;63019;-57
2023/07/18 00:41:57;;;;;;;0.40;0.40;;;;;;;17.01;57.62;97469.03;29395;195;63009;-57
2023/07/18 00:42:28;;;;;;;0.40;0.40;;;;;;;17.03;57.22;97460.50;29395;222;63009;-58
2023/07/18 00:43:00;;;;;;;0.40;0.40;;;;;;;17.03;57.12;97460.50;29395;206;63005;-56
2023/07/18 00:43:33;;;;;;;0.40;0.40;;;;;;;17.02;57.12;97458.88;29394;198;64013;-57
2023/07/18 00:44:07;;;;;;;0.40;0.40;;;;;;;17.01;57.06;97457.25;29395;239;63004;-56
2023/07/18 00:44:39;;;;;;;0.40;0.40;;;;;;;17.03;57.56;97471.47;29395;199;63009;-57
2023/07/18 00:45:11;;;;;;;0.40;0.40;;;;;;;17.03;57.87;97461.31;29395;218;63004;-57
2023/07/18 00:45:47;;;;;;;0.40;0.40;;;;;;;17.04;57.08;97459.38;29395;220;63026;-57
2023/07/18 00:46:19;;;;;;;0.40;0.40;;;;;;;17.05;57.32;97455.50;29395;279;63004;-56
2023/07/18 00:46:50;;;;;;;0.40;0.40;;;;;;;17.05;56.95;97452.75;29395;203;63008;-56
2023/07/18 00:47:24;;;;;;;0.40;0.40;;;;;;;17.06;55.62;97454.38;29394;228;64008;-61
2023/07/18 00:47:56;;;;;;;0.40;0.40;;;;;;;17.06;55.28;97448.88;29395;278;63009;-56
2023/07/18 00:48:34;;;;;;;0.40;0.40;;;;;;;17.07;55.01;97439.53;29394;223;64009;-57
2023/07/18 00:49:05;;;;;;;0.40;0.40;;;;;;;17.06;54.60;97440.66;29395;207;63009;-56
2023/07/18 00:49:40;;;;;;;0.40;0.40;;;;;;;17.07;55.35;97450.50;29395;231;63005;-57
2023/07/18 00:50:14;;;;;;;0.40;0.40;;;;;;;17.08;56.09;97455.66;29395;224;63009;-56
2023/07/18 00:50:46;;;;;;;0.40;0.40;;;;;;;17.10;56.49;97455.34;29395;197;63005;-57
2023/07/18 00:51:18;;;;;;;0.40;0.40;;;;;;;17.10;56.30;97449.88;29395;197;63009;-56
2023/07/18 00:51:50;;;;;;;0.40;0.40;;;;;;;17.11;56.53;97450.66;29395;242;63004;-57
2023/07/18 00:52:22;;;;;;;0.40;0.40;;;;;;;17.10;56.22;97441.63;29395;197;63009;-57
2023/07/18 00:52:55;;;;;;;0.40;0.40;;;;;;;17.10;56.22;97447.13;29395;224;63004;-57
2023/07/18 00:53:27;;;;;;;0.40;0.40;;;;;;;17.07;57.54;97453.25;29395;260;63009;-56
2023/07/18 00:53:59;;;;;;;0.40;0.40;;;;;;;17.03;56.62;97446.78;29394;205;64004;-56
2023/07/18 00:54:31;;;;;;;0.40;0.40;;;;;;;17.00;56.87;97444.69;29395;250;63009;-56
2023/07/18 00:55:03;;;;;;;0.40;0.40;;;;;;;17.00;57.00;97450.16;29395;231;63012;-57
2023/07/18 00:55:35;;;;;;;0.40;0.40;;;;;;;17.01;57.65;97457.25;29395;269;63009;-56
2023/07/18 00:56:07;;;;;;;0.40;0.40;;;;;;;17.01;57.82;97446.31;29395;231;63005;-56
2023/07/18 00:56:38;;;;;;;0.40;0.40;;;;;;;17.01;57.79;97451.78;29395;223;63009;-57
2023/07/18 00:57:11;;;;;;;0.40;0.40;;;;;;;17.02;58.26;97445.97;29395;197;63005;-56
2023/07/18 00:57:48;;;;;;;0.40;0.40;;;;;;;17.03;57.10;97441.31;29395;233;63009;-56
2023/07/18 00:58:19;;;;;;;0.40;0.40;;;;;;;17.00;55.59;97433.72;29395;236;63018;-56
2023/07/18 00:58:51;;;;;;;0.40;0.40;;;;;;;16.94;54.93;97429.53;29395;218;63009;-61
2023/07/18 00:59:25;;;;;;;0.40;0.40;;;;;;;16.90;56.05;97428.56;29394;203;64009;-56
2023/07/18 00:59:56;;;;;;;0.40;0.40;;;;;;;16.89;56.08;97432.44;29395;197;63009;-56
2023/07/18 01:00:28;;;;;;;0.40;0.40;;;;;;;16.89;56.55;97433.25;29395;239;63004;-56
2023/07/18 01:01:00;;;;;;;0.40;0.40;;;;;;;16.90;56.53;97434.06;29395;228;63008;-57
2023/07/18 01:01:32;;;;;;;0.40;0.40;;;;;;;16.91;57.45;97435.66;29395;202;63004;-56
2023/07/18 01:02:05;;;;;;;0.40;0.40;;;;;;;16.91;57.44;97446.63;29395;214;63009;-56
2023/07/18 01:02:38;;;;;;;0.40;0.40;;;;;;;16.89;57.51;97437.91;29395;198;63010;-57
2023/07/18 01:03:09;;;;;;;0.40;0.40;;;;;;;16.91;58.03;97449.38;29395;243;63009;-56
2023/07/18 01:03:41;;;;;;;0.40;0.40;;;;;;;16.92;58.38;97442.75;29395;217;63005;-57
2023/07/18 01:04:13;;;;;;;0.40;0.40;;;;;;;16.94;56.81;97433.09;29395;242;63009;-56
2023/07/18 01:04:44;;;;;;;0.40;0.40;;;;;;;16.95;56.35;97431.16;29394;243;64009;-57
2023/07/18 01:05:18;;;;;;;0.40;0.40;;;;;;;16.95;55.85;97434.72;29395;284;63005;-57
2023/07/18 01:05:49;;;;;;;0.40;0.40;;;;;;;16.95;55.93;97431.16;29395;238;63005;-57
2023/07/18 01:06:23;;;;;;;0.40;0.40;;;;;;;16.96;56.38;97435.50;29395;252;63009;-57
2023/07/18 01:06:55;;;;;;;0.40;0.40;;;;;;;16.98;57.19;97436.00;29395;221;63004;-56
2023/07/18 01:07:26;;;;;;;0.40;0.40;;;;;;;16.98;57.45;97436.00;29394;202;64013;-56
2023/07/18 01:07:57;;;;;;;0.40;0.40;;;;;;;16.98;57.09;97438.75;29395;220;63004;-56
2023/07/18 01:08:29;;;;;;;0.30;0.30;;;;;;;16.98;57.11;97441.50;29395;194;63009;-55
2023/07/18 01:09:00;;;;;;;0.40;0.40;;;;;;;16.95;58.18;97442.13;29395;247;63004;-55
2023/07/18 01:09:31;;;;;;;0.40;0.40;;;;;;;16.94;58.02;97440.50;29395;216;63014;-57
2023/07/18 01:10:23;;;;;;;0.40;0.40;;;;;;;16.95;57.93;97442.13;29395;222;63005;-56
2023/07/18 01:10:54;;;;;;;0.50;0.50;;;;;;;16.97;57.47;97434.38;29417;234;63005;-57
2023/07/18 01:11:26;;;;;;;0.40;0.40;;;;;;;16.98;57.59;97436.78;29395;244;63009;-56
2023/07/18 01:11:57;;;;;;;0.50;0.50;;;;;;;16.99;56.98;97437.59;29395;209;63005;-56
2023/07/18 01:12:29;;;;;;;0.40;0.40;;;;;;;16.98;56.13;97427.78;29394;224;64013;-57
2023/07/18 01:13:01;;;;;;;0.40;0.40;;;;;;;16.98;56.33;97436.00;29395;206;63005;-56
2023/07/18 01:13:34;;;;;;;0.40;0.40;;;;;;;16.96;56.69;97432.78;29394;254;64013;-57
2023/07/18 01:14:05;;;;;;;0.40;0.40;;;;;;;16.97;57.10;97439.87;29395;197;63004;-56
2023/07/18 01:14:37;;;;;;;0.40;0.40;;;;;;;16.97;57.86;97439.87;29395;216;63009;-57
2023/07/18 01:15:12;;;;;;;0.40;0.40;;;;;;;16.97;57.67;97445.34;29394;266;64004;-57
2023/07/18 01:15:44;;;;;;;0.40;0.40;;;;;;;16.96;58.44;97447.28;29395;266;63009;-57
2023/07/18 01:16:15;;;;;;;0.40;0.40;;;;;;;16.96;58.04;97443.75;29395;203;63004;-56
2023/07/18 01:16:47;;;;;;;0.40;0.40;;;;;;;16.96;58.44;97446.47;29394;251;64013;-57
2023/07/18 01:17:19;;;;;;;0.30;0.30;;;;;;;16.96;58.32;97449.22;29395;292;63005;-57
2023/07/18 01:17:50;;;;;;;0.40;0.40;;;;;;;16.95;58.44;97439.37;29394;225;64006;-57
2023/07/18 01:18:22;;;;;;;0.40;0.40;;;;;;;16.95;57.97;97442.13;29395;207;63005;-56
2023/07/18 01:18:53;;;;;;;0.40;0.40;;;;;;;16.94;58.23;97437.78;29394;256;64013;-56
2023/07/18 01:19:25;;;;;;;0.40;0.40;;;;;;;16.93;58.00;97433.41;29395;210;63010;-57
2023/07/18 01:19:57;;;;;;;0.40;0.40;;;;;;;16.93;58.19;97436.16;29395;204;63009;-56
2023/07/18 01:20:29;;;;;;;0.40;0.40;;;;;;;16.93;57.99;97434.22;29395;218;63005;-57
2023/07/18 01:21:01;;;;;;;0.30;0.30;;;;;;;16.93;57.53;97436.16;29394;214;64013;-56
2023/07/18 01:21:33;;;;;;;0.40;0.40;;;;;;;16.93;58.30;97436.16;29395;204;63004;-57
2023/07/18 01:22:08;;;;;;;0.32;0.32;;;;;;;16.94;58.45;97435.03;29395;212;63009;-56
2023/07/18 01:22:40;;;;;;;0.40;0.40;;;;;;;16.93;58.70;97436.97;29394;214;64009;-56
2023/07/18 01:23:13;;;;;;;0.40;0.40;;;;;;;16.94;57.71;97429.53;29395;233;63009;-57
2023/07/18 01:23:45;;;;;;;0.40;0.40;;;;;;;16.95;57.46;97428.41;29395;214;63004;-57
2023/07/18 01:24:16;;;;;;;0.40;0.40;;;;;;;16.93;57.53;97423.25;29395;202;63008;-56
2023/07/18 01:24:48;;;;;;;0.40;0.40;;;;;;;16.95;57.07;97429.22;29395;197;63009;-56
2023/07/18 01:25:19;;;;;;;0.40;0.40;;;;;;;16.96;57.14;97433.59;29394;206;64014;-57
2023/07/18 01:25:51;;;;;;;0.40;0.40;;;;;;;16.95;56.59;97425.69;29395;229;63005;-56
2023/07/18 01:26:23;;;;;;;0.40;0.40;;;;;;;16.94;57.00;97424.87;29395;219;63009;-57
2023/07/18 01:26:55;;;;;;;0.40;0.40;;;;;;;16.94;56.81;97424.87;29395;229;63005;-57
2023/07/18 01:27:27;;;;;;;0.40;0.40;;;;;;;16.95;56.84;97425.69;29395;209;63009;-57
2023/07/18 01:28:01;;;;;;;0.40;0.40;;;;;;;16.94;56.48;97418.59;29395;264;63005;-56
2023/07/18 01:28:33;;;;;;;0.40;0.40;;;;;;;16.93;55.98;97416.97;29395;280;63009;-57
2023/07/18 01:29:04;;;;;;;0.40;0.40;;;;;;;16.91;56.12;97420.03;29395;202;63004;-56
2023/07/18 01:29:35;;;;;;;0.40;0.40;;;;;;;16.91;56.27;97421.97;29395;240;63015;-58
2023/07/18 01:30:07;;;;;;;0.40;0.40;;;;;;;16.91;56.92;97427.44;29395;286;63007;-55
2023/07/18 01:30:39;;;;;;;0.40;0.40;;;;;;;16.90;57.88;97423.91;29394;245;64013;-57
2023/07/18 01:31:10;;;;;;;0.40;0.40;;;;;;;16.91;58.20;97430.19;29395;202;63004;-56
2023/07/18 01:31:41;;;;;;;0.40;0.40;;;;;;;16.91;58.29;97431.00;29395;230;63008;-57
2023/07/18 01:32:12;;;;;;;0.40;0.40;;;;;;;16.91;57.84;97420.03;29395;230;63005;-57
2023/07/18 01:32:44;;;;;;;0.40;0.40;;;;;;;16.93;58.00;97423.25;29395;265;63009;-56
2023/07/18 01:33:15;;;;;;;0.40;0.40;;;;;;;16.94;56.56;97410.34;29395;198;63001;-57
2023/07/18 01:33:47;;;;;;;0.40;0.40;;;;;;;16.95;56.58;97414.72;29395;198;63009;-56
2023/07/18 01:34:19;;;;;;;0.40;0.40;;;;;;;16.95;56.39;97420.19;29395;210;63005;-57
2023/07/18 01:34:50;;;;;;;0.50;0.50;;;;;;;16.94;56.63;97418.59;29395;227;63017;-56
2023/07/18 01:35:25;;;;;;;0.47;0.47;;;;;;;16.93;56.04;97411.47;29395;210;63005;-56
2023/07/18 01:35:56;;;;;;;0.40;0.40;;;;;;;16.93;56.44;97422.44;29394;222;64013;-57
2023/07/18 01:36:28;;;;;;;0.40;0.40;;;;;;;16.92;55.93;97418.09;29395;249;63004;-56
2023/07/18 01:36:59;;;;;;;0.40;0.40;;;;;;;16.91;56.75;97419.22;29395;214;63009;-57
2023/07/18 01:37:32;;;;;;;0.40;0.40;;;;;;;16.91;56.91;97419.22;29395;219;63015;-57
2023/07/18 01:38:03;;;;;;;0.40;0.40;;;;;;;16.91;56.13;97419.22;29395;210;63009;-57
2023/07/18 01:38:35;;;;;;;0.50;0.50;;;;;;;16.91;56.81;97419.22;29394;202;64009;-56
2023/07/18 01:39:08;;;;;;;0.40;0.40;;;;;;;16.91;56.76;97424.69;29395;247;63015;-56
2023/07/18 01:39:40;;;;;;;0.45;0.45;;;;;;;16.90;55.92;97415.66;29395;219;63005;-57
2023/07/18 01:40:13;;;;;;;0.40;0.40;;;;;;;16.89;55.77;97410.50;29395;222;63009;-55
2023/07/18 01:40:45;;;;;;;0.40;0.40;;;;;;;16.89;55.91;97416.00;29395;212;63005;-56
2023/07/18 01:41:17;;;;;;;0.40;0.40;;;;;;;16.89;56.52;97418.72;29394;197;64013;-57
2023/07/18 01:41:49;;;;;;;0.40;0.40;;;;;;;16.88;56.29;97414.38;29395;196;63005;-56
2023/07/18 01:42:20;;;;;;;0.40;0.40;;;;;;;16.89;57.11;97410.50;29395;203;63009;-56
2023/07/18 01:42:54;;;;;;;0.40;0.40;;;;;;;16.89;57.23;97421.47;29395;214;63005;-57
2023/07/18 01:43:25;;;;;;;0.40;0.40;;;;;;;16.90;57.75;97425.84;29395;230;63009;-56
2023/07/18 01:43:57;;;;;;;0.40;0.40;;;;;;;16.90;57.51;97420.34;29395;203;63004;-57
2023/07/18 01:44:28;;;;;;;0.40;0.40;;;;;;;16.89;57.00;97416.00;29395;230;63009;-57
2023/07/18 01:44:59;;;;;;;0.40;0.40;;;;;;;16.88;56.69;97415.19;29395;241;63004;-56
2023/07/18 01:45:30;;;;;;;0.40;0.40;;;;;;;16.87;57.15;97416.31;29395;197;63009;-56
2023/07/18 01:46:02;;;;;;;0.40;0.40;;;;;;;16.89;57.24;97418.72;29395;188;63004;-57
2023/07/18 01:46:33;;;;;;;0.40;0.40;;;;;;;16.89;57.28;97416.81;29394;221;64004;-55
2023/07/18 01:47:05;;;;;;;0.40;0.40;;;;;;;16.90;57.56;97423.09;29395;227;63004;-57
2023/07/18 01:47:38;;;;;;;0.40;0.40;;;;;;;16.91;57.70;97424.69;29395;214;63009;-56
2023/07/18 01:48:10;;;;;;;0.40;0.40;;;;;;;16.91;58.05;97424.69;29395;372;63005;-57
2023/07/18 01:48:41;;;;;;;0.40;0.40;;;;;;;16.92;58.31;97426.31;29395;218;63014;-57
2023/07/18 01:49:12;;;;;;;0.40;0.40;;;;;;;16.89;58.44;97427.75;29395;229;63015;-56
2023/07/18 01:49:44;;;;;;;0.40;0.40;;;;;;;16.88;57.56;97414.38;29395;224;63009;-56
2023/07/18 01:50:16;;;;;;;0.40;0.40;;;;;;;16.88;57.24;97419.84;29395;361;63005;-56
2023/07/18 01:50:47;;;;;;;0.40;0.40;;;;;;;16.87;57.04;97420.97;29395;276;63009;-55
2023/07/18 01:51:19;;;;;;;0.40;0.40;;;;;;;16.86;57.26;97422.91;29395;305;63004;-56
2023/07/18 01:51:50;;;;;;;0.40;0.40;;;;;;;16.86;57.20;97419.38;29394;206;64013;-56
2023/07/18 01:52:22;;;;;;;0.40;0.40;;;;;;;16.86;57.79;97427.59;29395;212;63004;-57
2023/07/18 01:52:53;;;;;;;0.40;0.40;;;;;;;16.85;58.21;97426.78;29395;237;63009;-56
2023/07/18 01:53:27;;;;;;;0.40;0.40;;;;;;;16.85;58.42;97421.31;29395;283;63004;-56
2023/07/18 01:53:58;;;;;;;0.40;0.40;;;;;;;16.84;58.65;97424.37;29395;201;63026;-56
2023/07/18 01:54:30;;;;;;;0.40;0.40;;;;;;;16.84;58.57;97421.62;29395;203;63004;-56
2023/07/18 01:55:03;;;;;;;0.40;0.40;;;;;;;16.84;57.40;97424.37;29395;226;63009;-56
2023/07/18 01:55:35;;;;;;;0.40;0.40;;;;;;;16.83;57.76;97422.75;29395;257;63005;-57
2023/07/18 01:56:06;;;;;;;0.40;0.40;;;;;;;16.82;57.95;97421.12;29395;229;63005;-57
2023/07/18 01:56:38;;;;;;;0.40;0.40;;;;;;;16.82;58.18;97421.12;29394;235;64009;-57
2023/07/18 01:57:09;;;;;;;0.40;0.40;;;;;;;16.81;58.37;97425.00;29395;246;63016;-57
2023/07/18 01:57:46;;;;;;;0.40;0.40;;;;;;;16.80;58.68;97424.19;29395;202;63000;-56
2023/07/18 01:58:17;;;;;;;0.40;0.40;;;;;;;16.80;58.64;97426.13;29395;239;63009;-56
2023/07/18 01:58:49;;;;;;;0.40;0.40;;;;;;;16.79;59.08;97427.25;29395;316;63009;-56
2023/07/18 01:59:22;;;;;;;0.40;0.40;;;;;;;16.78;58.89;97426.44;29395;220;63009;-58
2023/07/18 01:59:54;;;;;;;0.40;0.40;;;;;;;16.76;58.99;97423.22;29394;222;64009;-59
2023/07/18 02:00:25;;;;;;;0.40;0.40;;;;;;;16.75;59.00;97427.09;29395;220;63009;-56
2023/07/18 02:00:56;;;;;;;0.40;0.40;;;;;;;16.73;58.94;97423.84;29394;290;64008;-56
2023/07/18 02:01:28;;;;;;;0.40;0.40;;;;;;;16.73;59.33;97424.66;29395;214;63009;-56
2023/07/18 02:02:02;;;;;;;0.40;0.40;;;;;;;16.73;59.75;97427.41;29395;209;63005;-56
2023/07/18 02:02:34;;;;;;;0.40;0.40;;;;;;;16.72;59.75;97424.97;29395;238;63014;-57
2023/07/18 02:03:05;;;;;;;0.40;0.40;;;;;;;16.69;59.57;97415.47;29395;219;63005;-56
2023/07/18 02:03:37;;;;;;;0.40;0.40;;;;;;;16.69;58.36;97420.94;29395;200;63009;-56
2023/07/18 02:04:08;;;;;;;0.40;0.40;;;;;;;16.66;58.40;97413.34;29394;229;64009;-55
2023/07/18 02:04:39;;;;;;;0.40;0.40;;;;;;;16.67;58.27;97412.22;29395;329;63009;-56
2023/07/18 02:05:13;;;;;;;0.40;0.40;;;;;;;16.67;58.72;97416.91;29395;220;63005;-57
2023/07/18 02:05:48;;;;;;;0.40;0.40;;;;;;;16.66;58.74;97415.28;29395;215;63027;-57
2023/07/18 02:06:19;;;;;;;0.40;0.40;;;;;;;16.65;58.93;97411.75;29395;214;63004;-56
2023/07/18 02:06:52;;;;;;;0.40;0.40;;;;;;;16.65;59.16;97416.41;29395;204;63017;-56
2023/07/18 02:07:23;;;;;;;0.40;0.40;;;;;;;16.65;59.34;97413.69;29395;218;63004;-56
2023/07/18 02:07:55;;;;;;;0.40;0.40;;;;;;;16.64;59.01;97415.59;29395;218;63019;-57
2023/07/18 02:08:27;;;;;;;0.40;0.40;;;;;;;16.63;59.07;97407.72;29395;199;63009;-57
2023/07/18 02:08:58;;;;;;;0.40;0.40;;;;;;;16.62;58.64;97411.56;29395;212;63015;-57
2023/07/18 02:09:29;;;;;;;0.40;0.40;;;;;;;16.60;58.74;97417.37;29394;219;64009;-57
2023/07/18 02:10:01;;;;;;;0.40;0.40;;;;;;;16.61;59.14;97418.97;29395;197;63009;-55
2023/07/18 02:10:32;;;;;;;0.40;0.40;;;;;;;16.61;59.60;97415.44;29395;217;63005;-56
2023/07/18 02:11:04;;;;;;;0.40;0.40;;;;;;;16.60;59.92;97417.37;29395;240;63009;-57
2023/07/18 02:11:36;;;;;;;0.40;0.40;;;;;;;16.60;59.82;97419.31;29395;231;63005;-57
2023/07/18 02:12:09;;;;;;;0.40;0.40;;;;;;;16.60;59.80;97419.31;29395;265;63009;-56
2023/07/18 02:12:41;;;;;;;0.40;0.40;;;;;;;16.59;60.13;97417.69;29395;208;63009;-56
2023/07/18 02:13:12;;;;;;;0.40;0.40;;;;;;;16.58;59.95;97416.87;29395;207;63009;-57
2023/07/18 02:13:43;;;;;;;0.40;0.40;;;;;;;16.58;60.18;97421.56;29395;230;63004;-57
2023/07/18 02:14:20;;;;;;;0.40;0.40;;;;;;;16.57;60.58;97419.94;29395;216;63009;-60
2023/07/18 02:14:51;;;;;;;0.40;0.40;;;;;;;16.56;60.18;97418.31;29394;246;64009;-56
2023/07/18 02:15:22;;;;;;;0.40;0.40;;;;;;;16.56;59.75;97419.13;29395;233;63022;-57
2023/07/18 02:15:53;;;;;;;0.40;0.40;;;;;;;16.56;59.93;97407.38;29395;274;63004;-56
2023/07/18 02:16:25;;;;;;;0.40;0.40;;;;;;;16.54;60.46;97418.63;29395;196;63008;-56
2023/07/18 02:16:56;;;;;;;0.40;0.40;;;;;;;16.54;60.73;97418.63;29395;231;63005;-57
2023/07/18 02:17:27;;;;;;;0.40;0.40;;;;;;;16.54;60.03;97413.16;29395;345;63005;-57
2023/07/18 02:17:58;;;;;;;0.40;0.40;;;;;;;16.54;59.50;97410.41;29395;229;63005;-57
2023/07/18 02:18:29;;;;;;;0.40;0.40;;;;;;;16.53;59.74;97413.47;29395;203;63009;-56
2023/07/18 02:19:01;;;;;;;0.40;0.40;;;;;;;16.52;60.17;97415.41;29395;269;63005;-57
2023/07/18 02:19:38;;;;;;;0.40;0.40;;;;;;;16.51;60.18;97408.31;29395;231;63009;-56
2023/07/18 02:20:11;;;;;;;0.40;0.40;;;;;;;16.51;60.38;97416.53;29394;215;64009;-57
2023/07/18 02:20:46;;;;;;;0.40;0.40;;;;;;;16.50;60.21;97403.16;29395;234;63009;-57
2023/07/18 02:21:17;;;;;;;0.40;0.40;;;;;;;16.50;59.11;97403.16;29395;259;63004;-56
2023/07/18 02:21:49;;;;;;;0.40;0.40;;;;;;;16.48;59.09;97403.47;29395;206;63009;-57
2023/07/18 02:22:21;;;;;;;0.40;0.40;;;;;;;16.47;58.97;97407.34;29395;304;63016;-56
2023/07/18 02:22:52;;;;;;;0.40;0.40;;;;;;;16.47;59.20;97404.59;29395;216;63020;-56
2023/07/18 02:23:24;;;;;;;0.40;0.40;;;;;;;16.49;59.43;97409.75;29395;210;63011;-56
2023/07/18 02:23:55;;;;;;;0.40;0.40;;;;;;;16.48;59.83;97408.94;29395;233;63008;-57
2023/07/18 02:24:26;;;;;;;0.40;0.40;;;;;;;16.47;59.13;97407.34;29395;223;63005;-56
2023/07/18 02:24:57;;;;;;;0.40;0.40;;;;;;;16.46;58.99;97408.47;29395;279;63009;-57
2023/07/18 02:25:29;;;;;;;0.40;0.40;;;;;;;16.43;58.84;97404.41;29394;209;64009;-56
2023/07/18 02:26:00;;;;;;;0.40;0.40;;;;;;;16.43;58.65;97403.63;29395;314;63009;-56
2023/07/18 02:26:32;;;;;;;0.40;0.40;;;;;;;16.45;58.39;97406.84;29395;234;63011;-57
2023/07/18 02:27:04;;;;;;;0.40;0.40;;;;;;;16.43;58.58;97409.09;29395;229;63009;-56
2023/07/18 02:27:39;;;;;;;0.40;0.40;;;;;;;16.43;58.69;97406.34;29395;293;63005;-57
2023/07/18 02:28:12;;;;;;;0.40;0.40;;;;;;;16.41;58.65;97401.19;29395;216;63009;-56
2023/07/18 02:28:43;;;;;;;0.40;0.40;;;;;;;16.40;58.64;97407.78;29394;246;64009;-56
2023/07/18 02:29:15;;;;;;;0.40;0.40;;;;;;;16.40;58.56;97404.25;29395;208;63009;-56
2023/07/18 02:29:47;;;;;;;0.40;0.40;;;;;;;16.40;58.50;97409.72;29395;210;63014;-56
2023/07/18 02:30:18;;;;;;;0.40;0.40;;;;;;;16.40;58.80;97404.25;29395;216;63009;-57
2023/07/18 02:30:52;;;;;;;0.50;0.50;;;;;;;16.41;59.29;97411.34;29395;215;63004;-58
2023/07/18 02:31:23;;;;;;;0.40;0.40;;;;;;;16.41;59.54;97412.16;29395;203;63008;-57
2023/07/18 02:31:55;;;;;;;0.40;0.40;;;;;;;16.42;59.45;97407.47;29395;229;63005;-56
2023/07/18 02:32:27;;;;;;;0.47;0.47;;;;;;;16.43;59.35;97409.09;29395;224;63023;-56
2023/07/18 02:32:58;;;;;;;0.50;0.50;;;;;;;16.43;58.93;97409.09;29395;209;63005;-56